createdAt,value
2023-05-10T00:01:16.248Z,3.30
2023-05-10T00:03:43.621Z,3.97
2023-05-10T00:06:10.872Z,3.13
2023-05-10T00:08:38.068Z,4.03
2023-05-10T00:11:05.334Z,3.90
2023-05-10T00:13:33.121Z,6.18
2023-05-10T00:16:00.582Z,2.55
2023-05-10T00:18:27.797Z,2.90
2023-05-10T00:20:54.893Z,4.88
2023-05-10T00:23:21.971Z,3.40
2023-05-10T00:25:49.387Z,3.63
2023-05-10T00:28:16.560Z,3.83
2023-05-10T00:30:43.672Z,5.03
2023-05-10T00:33:10.857Z,4.93
2023-05-10T00:35:39.039Z,5.80
2023-05-10T00:38:06.191Z,4.97
2023-05-10T00:40:33.369Z,5.78
2023-05-10T00:43:05.198Z,4.75
2023-05-10T00:45:34.077Z,4.22
2023-05-10T00:48:04.803Z,2.67
2023-05-10T00:50:33.897Z,6.20
2023-05-10T00:53:01.952Z,4.05
2023-05-10T00:55:29.414Z,4.60
2023-05-10T00:57:57.232Z,5.03
2023-05-10T01:00:24.725Z,5.78
2023-05-10T01:02:51.946Z,5.47
2023-05-10T01:05:19.450Z,7.07
2023-05-10T01:07:46.728Z,5.88
2023-05-10T01:10:14.196Z,7.18
2023-05-10T01:12:46.173Z,4.47
2023-05-10T01:15:15.593Z,4.55
2023-05-10T01:17:45.446Z,7.32
2023-05-10T01:20:14.122Z,4.22
2023-05-10T01:22:59.423Z,4.30
2023-05-10T01:26:08.890Z,5.15
2023-05-10T01:28:47.838Z,3.97
2023-05-10T01:31:34.822Z,5.15
2023-05-10T01:34:17.939Z,4.68
2023-05-10T01:36:56.684Z,7.53
2023-05-10T01:39:48.134Z,4.18
2023-05-10T01:42:20.898Z,5.03
2023-05-10T01:45:03.403Z,5.38
2023-05-10T01:47:55.360Z,5.45
2023-05-10T01:50:29.833Z,5.90
2023-05-10T01:53:00.126Z,3.58
2023-05-10T01:55:34.662Z,6.90
2023-05-10T01:58:06.782Z,5.00
2023-05-10T02:00:36.300Z,4.78
2023-05-10T02:03:07.507Z,5.55
2023-05-10T02:05:35.986Z,5.33
2023-05-10T02:08:06.980Z,6.20
2023-05-10T02:10:36.503Z,3.03
2023-05-10T02:13:04.517Z,3.30
2023-05-10T02:15:33.522Z,2.97
2023-05-10T02:18:03.539Z,3.28
2023-05-10T02:20:33.627Z,3.67
2023-05-10T02:23:02.242Z,3.92
2023-05-10T02:25:32.638Z,5.18
2023-05-10T02:28:03.006Z,4.57
2023-05-10T02:30:32.353Z,8.68
2023-05-10T02:33:00.554Z,4.13
2023-05-10T02:35:29.101Z,5.22
2023-05-10T02:37:59.048Z,8.20
2023-05-10T02:40:28.850Z,4.05
2023-05-10T02:43:00.282Z,4.70
2023-05-10T02:45:31.332Z,7.55
2023-05-10T02:47:59.262Z,6.65
2023-05-10T02:50:29.583Z,4.15
2023-05-10T02:53:02.801Z,5.45
2023-05-10T02:55:37.535Z,5.22
2023-05-10T02:58:05.144Z,6.05
2023-05-10T03:00:32.747Z,5.55
2023-05-10T03:03:00.172Z,5.18
2023-05-10T03:05:28.519Z,5.60
2023-05-10T03:07:57.331Z,5.05
2023-05-10T03:10:31.827Z,6.80
2023-05-10T03:13:04.981Z,5.47
2023-05-10T03:15:59.079Z,6.40
2023-05-10T03:18:45.163Z,6.47
2023-05-10T03:21:14.691Z,7.93
2023-05-10T03:23:47.012Z,7.53
2023-05-10T03:26:34.131Z,8.45
2023-05-10T03:29:09.797Z,3.85
2023-05-10T03:31:37.373Z,7.97
2023-05-10T03:34:04.589Z,6.47
2023-05-10T03:36:31.767Z,5.95
2023-05-10T03:38:59.436Z,6.70
2023-05-10T03:41:27.098Z,5.65
2023-05-10T03:43:55.004Z,5.05
2023-05-10T03:46:22.182Z,5.55
2023-05-10T03:48:49.991Z,7.53
2023-05-10T03:51:17.210Z,6.03
2023-05-10T03:53:44.364Z,6.22
2023-05-10T03:56:11.567Z,6.25
2023-05-10T03:58:38.849Z,7.80
2023-05-10T04:01:06.126Z,4.97
2023-05-10T04:03:33.386Z,5.90
2023-05-10T04:06:02.476Z,6.55
2023-05-10T04:08:30.121Z,5.55
2023-05-10T04:11:08.793Z,6.13
2023-05-10T04:13:36.632Z,8.80
2023-05-10T04:16:03.961Z,5.70
2023-05-10T04:18:31.612Z,11.05
2023-05-10T04:21:00.454Z,7.22
2023-05-10T04:23:28.633Z,8.07
2023-05-10T04:26:02.916Z,6.15
2023-05-10T04:28:30.038Z,7.95
2023-05-10T04:31:08.449Z,9.75
2023-05-10T04:33:37.725Z,10.32
2023-05-10T04:36:05.547Z,16.48
2023-05-10T04:38:32.661Z,7.70
2023-05-10T04:41:10.930Z,10.48
2023-05-10T04:43:39.321Z,9.60
2023-05-10T04:46:09.556Z,15.35
2023-05-10T04:48:36.986Z,10.93
2023-05-10T04:51:05.106Z,11.23
2023-05-10T04:53:32.558Z,14.20
2023-05-10T04:55:59.845Z,12.95
2023-05-10T04:58:27.150Z,11.25
2023-05-10T05:00:54.233Z,10.32
2023-05-10T05:03:21.465Z,10.50
2023-05-10T05:05:48.839Z,14.20
2023-05-10T05:08:16.168Z,8.57
2023-05-10T05:10:44.335Z,9.88
2023-05-10T05:13:13.453Z,11.38
2023-05-10T05:15:40.883Z,9.38
2023-05-10T05:18:08.270Z,10.65
2023-05-10T05:20:35.725Z,11.52
2023-05-10T05:23:03.165Z,16.40
2023-05-10T05:25:30.365Z,16.05
2023-05-10T05:27:57.609Z,15.48
2023-05-10T05:30:24.967Z,16.42
2023-05-10T05:32:52.474Z,13.05
2023-05-10T05:35:19.724Z,14.02
2023-05-10T05:37:46.832Z,16.13
2023-05-10T05:40:15.498Z,13.73
2023-05-10T05:42:42.948Z,16.02
2023-05-10T05:45:14.126Z,14.15
2023-05-10T05:47:41.768Z,14.50
2023-05-10T05:50:09.549Z,15.52
2023-05-10T05:52:38.597Z,14.13
2023-05-10T05:55:07.828Z,12.20
2023-05-10T05:57:35.123Z,14.32
2023-05-10T06:00:03.688Z,14.07
2023-05-10T06:02:40.234Z,16.98
2023-05-10T06:05:07.940Z,16.48
2023-05-10T06:07:35.170Z,13.38
2023-05-10T06:10:02.701Z,14.10
2023-05-10T06:12:29.850Z,14.63
2023-05-10T06:14:57.086Z,11.63
2023-05-10T06:17:25.217Z,12.55
2023-05-10T06:19:52.395Z,11.73
2023-05-10T06:22:19.645Z,14.40
2023-05-10T06:24:47.190Z,14.45
2023-05-10T06:27:14.399Z,13.38
2023-05-10T06:29:41.769Z,11.57
2023-05-10T06:32:08.886Z,15.18
2023-05-10T06:34:36.572Z,13.02
2023-05-10T06:37:04.565Z,13.13
2023-05-10T06:39:31.715Z,8.35
2023-05-10T06:41:58.789Z,10.70
2023-05-10T06:44:32.939Z,15.05
2023-05-10T06:47:00.069Z,14.80
2023-05-10T06:49:27.267Z,8.93
2023-05-10T06:51:54.561Z,9.10
2023-05-10T06:54:21.828Z,13.90
2023-05-10T06:56:48.945Z,12.10
2023-05-10T06:59:17.524Z,8.10
2023-05-10T07:01:44.897Z,8.10
2023-05-10T07:04:12.075Z,8.50
2023-05-10T07:06:39.206Z,13.57
2023-05-10T07:09:06.474Z,11.40
2023-05-10T07:11:33.591Z,10.32
2023-05-10T07:14:00.851Z,9.57
2023-05-10T07:16:28.111Z,10.40
2023-05-10T07:18:55.395Z,7.75
2023-05-10T07:21:25.195Z,11.20
2023-05-10T07:23:52.729Z,9.15
2023-05-10T07:26:20.479Z,16.08
2023-05-10T07:28:48.095Z,10.77
2023-05-10T07:31:15.236Z,10.20
2023-05-10T07:33:42.321Z,10.10
2023-05-10T07:36:09.600Z,13.30
2023-05-10T07:38:38.363Z,8.27
2023-05-10T07:41:06.869Z,10.80
2023-05-10T07:43:33.995Z,13.35
2023-05-10T07:46:01.230Z,8.15
2023-05-10T07:48:28.437Z,8.63
2023-05-10T07:50:55.575Z,11.40
2023-05-10T07:53:22.662Z,9.35
2023-05-10T07:55:55.497Z,6.88
2023-05-10T07:58:22.611Z,9.85
2023-05-10T08:00:50.433Z,11.70
2023-05-10T08:03:17.811Z,8.73
2023-05-10T08:05:45.542Z,9.48
2023-05-10T08:08:13.363Z,12.13
2023-05-10T08:10:40.504Z,10.15
2023-05-10T08:13:07.657Z,9.70
2023-05-10T08:15:34.748Z,12.57
2023-05-10T08:18:01.981Z,14.23
2023-05-10T08:20:29.285Z,11.35
2023-05-10T08:22:56.523Z,7.80
2023-05-10T08:25:23.604Z,9.82
2023-05-10T08:27:51.013Z,11.63
2023-05-10T08:30:18.466Z,12.23
2023-05-10T08:32:45.771Z,15.52
2023-05-10T08:35:13.011Z,9.30
2023-05-10T08:37:40.244Z,20.17
2023-05-10T08:40:08.163Z,8.27
2023-05-10T08:42:38.791Z,8.57
2023-05-10T08:45:08.208Z,12.02
2023-05-10T08:47:39.020Z,12.40
2023-05-10T08:50:07.644Z,14.13
2023-05-10T08:52:39.891Z,14.32
2023-05-10T08:57:34.565Z,10.40
2023-05-10T09:00:02.723Z,14.23
2023-05-10T09:02:32.406Z,11.93
2023-05-10T09:04:59.729Z,7.63
2023-05-10T09:07:27.339Z,11.13
2023-05-10T09:09:55.699Z,9.00
2023-05-10T09:12:24.529Z,11.30
2023-05-10T09:14:53.502Z,8.40
2023-05-10T09:17:21.365Z,10.00
2023-05-10T09:19:48.578Z,8.57
2023-05-10T09:22:15.722Z,14.75
2023-05-10T09:24:46.300Z,8.70
2023-05-10T09:27:13.501Z,8.27
2023-05-10T09:29:44.088Z,12.80
2023-05-10T09:32:11.284Z,9.52
2023-05-10T09:34:41.201Z,9.10
2023-05-10T09:37:09.260Z,9.38
2023-05-10T09:39:37.911Z,8.98
2023-05-10T09:42:11.005Z,11.35
2023-05-10T09:44:39.295Z,8.20
2023-05-10T09:47:06.895Z,9.45
2023-05-10T09:49:34.352Z,8.00
2023-05-10T09:52:07.370Z,7.32
2023-05-10T09:54:35.391Z,8.40
2023-05-10T09:57:02.827Z,10.70
2023-05-10T09:59:31.526Z,11.23
2023-05-10T10:02:00.619Z,8.52
2023-05-10T10:04:29.812Z,9.13
2023-05-10T10:07:05.038Z,11.50
2023-05-10T10:09:33.720Z,8.38
2023-05-10T10:12:05.778Z,7.82
2023-05-10T10:14:33.171Z,6.63
2023-05-10T10:19:34.645Z,7.88
2023-05-10T10:22:01.998Z,9.18
2023-05-10T10:24:29.115Z,7.57
2023-05-10T10:27:05.467Z,7.75
2023-05-10T10:30:03.876Z,8.40
2023-05-10T10:33:13.565Z,7.97
2023-05-10T10:35:48.161Z,7.05
2023-05-10T10:38:15.264Z,8.95
2023-05-10T10:40:42.422Z,11.40
2023-05-10T10:43:25.604Z,8.88
2023-05-10T10:46:15.108Z,8.77
2023-05-10T10:48:48.536Z,9.02
2023-05-10T10:51:16.080Z,9.88
2023-05-10T10:53:44.546Z,10.30
2023-05-10T10:56:14.712Z,7.50
2023-05-10T10:58:42.613Z,10.73
2023-05-10T11:01:17.161Z,8.30
2023-05-10T11:04:16.865Z,6.00
2023-05-10T11:06:44.017Z,4.90
2023-05-10T11:09:13.337Z,6.47
2023-05-10T11:11:56.193Z,7.78
2023-05-10T11:14:23.823Z,8.75
2023-05-10T11:16:51.610Z,6.78
2023-05-10T11:19:21.129Z,6.97
2023-05-10T11:21:54.773Z,7.72
2023-05-10T11:24:28.044Z,7.78
2023-05-10T11:26:55.418Z,7.10
2023-05-10T11:29:22.733Z,8.75
2023-05-10T11:31:50.879Z,4.45
2023-05-10T11:34:34.433Z,6.05
2023-05-10T11:37:02.182Z,7.78
2023-05-10T11:39:34.538Z,4.00
2023-05-10T11:42:01.826Z,3.65
2023-05-10T11:44:35.451Z,6.10
2023-05-10T11:47:03.300Z,6.50
2023-05-10T11:49:30.643Z,8.27
2023-05-10T11:52:08.316Z,4.78
2023-05-10T11:54:38.424Z,4.00
2023-05-10T11:57:05.941Z,5.90
2023-05-10T11:59:33.051Z,5.97
2023-05-10T12:02:00.788Z,5.03
2023-05-10T12:04:31.099Z,5.82
2023-05-10T12:06:58.668Z,3.55
2023-05-10T12:09:39.701Z,4.95
2023-05-10T12:12:10.396Z,6.60
2023-05-10T12:14:37.914Z,5.05
2023-05-10T12:17:05.104Z,6.32
2023-05-10T12:19:40.240Z,4.38
2023-05-10T12:22:07.608Z,6.43
2023-05-10T12:24:39.365Z,4.05
2023-05-10T12:27:09.260Z,4.30
2023-05-10T12:29:37.029Z,8.38
2023-05-10T12:32:04.224Z,3.88
2023-05-10T12:34:32.747Z,9.13
2023-05-10T12:37:00.143Z,4.85
2023-05-10T12:39:27.536Z,4.45
2023-05-10T12:41:55.114Z,5.07
2023-05-10T12:44:22.266Z,3.30
2023-05-10T12:46:49.465Z,4.47
2023-05-10T12:49:17.774Z,4.30
2023-05-10T12:51:44.944Z,4.97
2023-05-10T12:54:12.008Z,5.85
2023-05-10T12:56:39.216Z,5.82
2023-05-10T12:59:06.264Z,6.55
2023-05-10T13:01:33.421Z,3.95
2023-05-10T13:04:01.254Z,5.43
2023-05-10T13:06:28.470Z,6.43
2023-05-10T13:08:55.613Z,6.38
2023-05-10T13:11:22.776Z,7.25
2023-05-10T13:13:49.868Z,4.05
2023-05-10T13:16:17.064Z,5.22
2023-05-10T13:18:44.235Z,6.70
2023-05-10T13:21:12.305Z,6.22
2023-05-10T13:23:40.040Z,7.20
2023-05-10T13:26:07.177Z,3.67
2023-05-10T13:28:34.279Z,6.47
2023-05-10T13:31:01.655Z,4.82
2023-05-10T13:33:28.923Z,5.93
2023-05-10T13:35:56.289Z,3.70
2023-05-10T13:38:23.458Z,4.43
2023-05-10T13:40:53.636Z,4.97
2023-05-10T13:43:21.166Z,5.35
2023-05-10T13:45:48.374Z,4.57
2023-05-10T13:48:15.518Z,5.85
2023-05-10T13:50:42.621Z,5.70
2023-05-10T13:53:09.716Z,6.40
2023-05-10T13:55:36.922Z,4.05
2023-05-10T13:58:03.972Z,5.55
2023-05-10T14:00:31.553Z,8.48
2023-05-10T14:02:58.845Z,8.10
2023-05-10T14:05:26.634Z,4.82
2023-05-10T14:07:54.874Z,6.10
2023-05-10T14:10:22.122Z,7.75
2023-05-10T14:12:49.483Z,6.30
2023-05-10T14:15:17.175Z,5.82
2023-05-10T14:17:44.667Z,3.47
2023-05-10T14:20:12.416Z,6.68
2023-05-10T14:22:39.528Z,3.83
2023-05-10T14:25:06.854Z,8.05
2023-05-10T14:27:34.055Z,8.48
2023-05-10T14:30:01.237Z,7.55
2023-05-10T14:32:28.920Z,6.20
2023-05-10T14:34:56.689Z,4.88
2023-05-10T14:37:23.811Z,6.32
2023-05-10T14:39:50.970Z,4.70
2023-05-10T14:42:18.101Z,3.85
2023-05-10T14:44:45.267Z,3.42
2023-05-10T14:47:12.493Z,5.47
2023-05-10T14:49:39.935Z,5.43
2023-05-10T14:52:07.218Z,3.40
2023-05-10T14:54:34.566Z,6.57
2023-05-10T14:57:01.757Z,3.55
2023-05-10T14:59:28.881Z,3.33
2023-05-10T15:01:56.641Z,2.63
2023-05-10T15:04:24.687Z,3.70
2023-05-10T15:06:53.207Z,2.72
2023-05-10T15:09:20.757Z,2.75
2023-05-10T15:11:47.851Z,2.42
2023-05-10T15:14:14.953Z,3.72
2023-05-10T15:16:42.162Z,5.72
2023-05-10T15:19:09.263Z,4.97
2023-05-10T15:21:39.875Z,3.60
2023-05-10T15:24:07.333Z,3.95
2023-05-10T15:26:34.719Z,9.30
2023-05-10T15:29:02.168Z,4.50
2023-05-10T15:31:29.702Z,3.45
2023-05-10T15:34:02.986Z,4.32
2023-05-10T15:36:30.206Z,2.72
2023-05-10T15:38:57.301Z,3.50
2023-05-10T15:41:25.632Z,4.55
2023-05-10T15:43:52.908Z,6.97
2023-05-10T15:46:19.982Z,3.70
2023-05-10T15:48:51.887Z,2.33
2023-05-10T15:51:19.830Z,1.40
2023-05-10T15:54:00.392Z,3.38
2023-05-10T15:56:34.588Z,2.15
2023-05-10T15:59:01.975Z,2.60
2023-05-10T16:01:29.442Z,3.97
2023-05-10T16:03:56.848Z,5.15
2023-05-10T16:06:23.942Z,6.35
2023-05-10T16:08:51.988Z,2.85
2023-05-10T16:11:22.035Z,3.28
2023-05-10T16:13:49.636Z,3.30
2023-05-10T16:16:17.271Z,2.47
2023-05-10T16:18:44.892Z,5.82
2023-05-10T16:21:12.249Z,3.67
2023-05-10T16:23:39.799Z,2.95
2023-05-10T16:26:07.567Z,1.30
2023-05-10T16:28:35.271Z,5.40
2023-05-10T16:31:02.529Z,2.97
2023-05-10T16:33:29.653Z,6.95
2023-05-10T16:35:56.860Z,3.20
2023-05-10T16:38:24.178Z,3.53
2023-05-10T16:40:51.334Z,2.67
2023-05-10T16:43:19.330Z,4.35
2023-05-10T16:45:46.490Z,2.70
2023-05-10T16:48:13.704Z,2.83
2023-05-10T16:50:44.464Z,3.85
2023-05-10T16:53:11.890Z,4.00
2023-05-10T16:55:39.321Z,4.68
2023-05-10T16:58:06.437Z,3.38
2023-05-10T17:00:33.663Z,4.95
2023-05-10T17:03:01.379Z,5.60
2023-05-10T17:05:29.846Z,4.45
2023-05-10T17:07:57.006Z,3.65
2023-05-10T17:10:24.297Z,3.28
2023-05-10T17:12:51.559Z,6.32
2023-05-10T17:15:19.595Z,4.70
2023-05-10T17:17:47.900Z,6.05
2023-05-10T17:20:15.303Z,7.70
2023-05-10T17:22:42.887Z,4.03
2023-05-10T17:25:10.705Z,4.90
2023-05-10T17:27:37.889Z,3.25
2023-05-10T17:30:05.964Z,2.95
2023-05-10T17:32:33.171Z,3.88
2023-05-10T17:35:00.539Z,3.38
2023-05-10T17:37:27.681Z,4.50
2023-05-10T17:39:54.974Z,4.80
2023-05-10T17:42:22.184Z,3.92
2023-05-10T17:44:49.372Z,3.33
2023-05-10T17:47:17.525Z,3.33
2023-05-10T17:49:45.074Z,3.38
2023-05-10T17:52:12.743Z,4.93
2023-05-10T17:54:39.881Z,3.17
2023-05-10T17:57:07.224Z,3.40
2023-05-10T17:59:34.429Z,1.80
2023-05-10T18:02:02.545Z,2.58
2023-05-10T18:04:30.165Z,4.63
2023-05-10T18:07:01.440Z,2.42
2023-05-10T18:09:29.302Z,3.57
2023-05-10T18:11:56.655Z,3.53
2023-05-10T18:14:36.553Z,4.00
2023-05-10T18:17:08.200Z,4.05
2023-05-10T18:19:35.488Z,3.45
2023-05-10T18:22:02.852Z,1.98
2023-05-10T18:24:38.967Z,4.68
2023-05-10T18:27:08.859Z,5.20
2023-05-10T18:29:37.260Z,4.82
2023-05-10T18:32:04.715Z,3.05
2023-05-10T18:34:31.880Z,4.60
2023-05-10T18:36:59.711Z,4.53
2023-05-10T18:39:26.873Z,5.57
2023-05-10T18:41:54.119Z,3.15
2023-05-10T18:44:23.259Z,5.05
2023-05-10T18:46:54.086Z,5.70
2023-05-10T18:49:21.547Z,8.88
2023-05-10T18:51:48.705Z,2.83
2023-05-10T18:54:15.912Z,4.57
2023-05-10T18:56:45.338Z,8.20
2023-05-10T18:59:13.669Z,6.22
2023-05-10T19:01:41.837Z,2.85
2023-05-10T19:04:09.294Z,3.10
2023-05-10T19:06:36.688Z,6.35
2023-05-10T19:09:04.018Z,8.13
2023-05-10T19:11:34.052Z,5.22
2023-05-10T19:14:01.837Z,5.82
2023-05-10T19:16:30.468Z,7.43
2023-05-10T19:18:57.978Z,8.02
2023-05-10T19:21:25.354Z,8.13
2023-05-10T19:23:53.672Z,8.10
2023-05-10T19:26:21.156Z,6.85
2023-05-10T19:28:50.664Z,5.85
2023-05-10T19:31:18.956Z,4.43
2023-05-10T19:33:46.907Z,4.65
2023-05-10T19:36:14.285Z,4.82
2023-05-10T19:38:41.680Z,3.13
2023-05-10T19:41:08.975Z,3.63
2023-05-10T19:43:37.920Z,5.03
2023-05-10T19:46:05.521Z,8.07
2023-05-10T19:48:32.813Z,3.28
2023-05-10T19:51:04.826Z,4.15
2023-05-10T19:53:33.703Z,4.78
2023-05-10T19:56:07.216Z,4.68
2023-05-10T19:58:34.572Z,5.03
2023-05-10T20:01:02.178Z,6.65
2023-05-10T20:03:29.566Z,5.63
2023-05-10T20:05:56.710Z,7.05
2023-05-10T20:08:24.679Z,7.25
2023-05-10T20:10:51.959Z,6.07
2023-05-10T20:13:19.126Z,4.55
2023-05-10T20:15:46.722Z,3.47
2023-05-10T20:18:13.941Z,4.35
2023-05-10T20:20:41.216Z,3.55
2023-05-10T20:23:08.381Z,5.07
2023-05-10T20:25:35.670Z,3.72
2023-05-10T20:28:03.785Z,5.03
2023-05-10T20:30:31.062Z,3.70
2023-05-10T20:32:58.219Z,1.77
2023-05-10T20:35:25.396Z,2.33
2023-05-10T20:37:52.482Z,2.05
2023-05-10T20:40:19.874Z,3.85
2023-05-10T20:42:47.767Z,1.23
2023-05-10T20:45:15.446Z,1.95
2023-05-10T20:47:42.791Z,1.20
2023-05-10T20:50:10.198Z,3.38
2023-05-10T20:52:37.465Z,1.95
2023-05-10T20:55:05.109Z,1.88
2023-05-10T20:57:32.281Z,2.83
2023-05-10T20:59:59.453Z,1.55
2023-05-10T21:02:26.633Z,2.13
2023-05-10T21:04:55.627Z,2.47
2023-05-10T21:07:25.074Z,2.70
2023-05-10T21:09:52.373Z,1.58
2023-05-10T21:12:19.520Z,2.25
2023-05-10T21:14:47.849Z,3.28
2023-05-10T21:17:15.112Z,1.95
2023-05-10T21:19:42.397Z,1.63
2023-05-10T21:22:09.635Z,4.13
2023-05-10T21:24:36.794Z,3.70
2023-05-10T21:27:05.195Z,2.00
2023-05-10T21:29:32.278Z,4.82
2023-05-10T21:31:59.478Z,3.55
2023-05-10T21:34:26.881Z,2.85
2023-05-10T21:36:54.766Z,3.53
2023-05-10T21:39:21.897Z,4.60
2023-05-10T21:41:49.021Z,2.85
2023-05-10T21:44:16.260Z,4.97
2023-05-10T21:46:44.310Z,4.20
2023-05-10T21:49:11.540Z,3.22
2023-05-10T21:51:38.702Z,4.30
2023-05-10T21:54:05.904Z,4.28
2023-05-10T21:56:33.125Z,4.32
2023-05-10T21:59:00.222Z,5.43
2023-05-10T22:01:27.824Z,7.22
2023-05-10T22:03:55.459Z,8.48
2023-05-10T22:06:22.790Z,5.30
2023-05-10T22:08:49.956Z,7.15
2023-05-10T22:11:17.084Z,4.97
2023-05-10T22:13:44.281Z,7.63
2023-05-10T22:16:11.370Z,5.55
2023-05-10T22:18:38.650Z,5.45
2023-05-10T22:21:05.822Z,3.08
2023-05-10T22:23:32.974Z,4.15
2023-05-10T22:26:02.005Z,2.88
2023-05-10T22:28:29.488Z,3.75
2023-05-10T22:30:56.715Z,3.75
2023-05-10T22:33:23.887Z,5.65
2023-05-10T22:35:51.169Z,4.35
2023-05-10T22:38:18.292Z,3.78
2023-05-10T22:40:45.575Z,3.08
2023-05-10T22:43:12.712Z,2.28
2023-05-10T22:45:40.467Z,2.47
2023-05-10T22:48:09.551Z,2.17
2023-05-10T22:50:37.178Z,2.40
2023-05-10T22:53:04.432Z,3.78
2023-05-10T22:55:31.644Z,6.47
2023-05-10T22:57:59.063Z,2.60
2023-05-10T23:00:26.384Z,3.58
2023-05-10T23:02:53.590Z,2.03
2023-05-10T23:05:20.788Z,2.63
2023-05-10T23:07:53.120Z,4.07
2023-05-10T23:10:20.734Z,1.83
2023-05-10T23:12:48.213Z,1.98
2023-05-10T23:15:15.592Z,6.55
2023-05-10T23:17:44.117Z,3.20
2023-05-10T23:20:12.131Z,5.25
2023-05-10T23:22:40.157Z,3.40
2023-05-10T23:25:08.036Z,3.63
2023-05-10T23:27:35.233Z,2.45
2023-05-10T23:30:02.414Z,3.63
2023-05-10T23:32:29.645Z,2.15
2023-05-10T23:34:56.792Z,2.08
2023-05-10T23:37:23.848Z,2.28
2023-05-10T23:39:51.046Z,2.80
2023-05-10T23:42:18.228Z,2.50
2023-05-10T23:44:45.468Z,3.00
2023-05-10T23:47:12.841Z,3.70
2023-05-10T23:49:42.226Z,3.45
2023-05-10T23:52:09.533Z,4.85
2023-05-10T23:54:36.719Z,1.83
2023-05-10T23:57:03.901Z,2.47
2023-05-10T23:59:31.090Z,2.47
